createdAt,value
2022-11-21T00:00:01.532Z,5.58
2022-11-21T00:01:14.563Z,5.60
2022-11-21T00:02:17.409Z,5.62
2022-11-21T00:03:19.283Z,5.60
2022-11-21T00:04:23.431Z,5.60
2022-11-21T00:05:25.406Z,5.57
2022-11-21T00:06:28.278Z,5.57
2022-11-21T00:07:30.192Z,5.56
2022-11-21T00:08:32.990Z,5.55
2022-11-21T00:09:36.767Z,5.54
2022-11-21T00:10:40.640Z,5.53
2022-11-21T00:11:42.476Z,5.56
2022-11-21T00:12:45.257Z,5.56
2022-11-21T00:13:47.183Z,5.56
2022-11-21T00:14:50.026Z,5.56
2022-11-21T00:15:51.849Z,5.59
2022-11-21T00:16:57.489Z,5.60
2022-11-21T00:18:02.459Z,5.62
2022-11-21T00:19:05.261Z,5.63
2022-11-21T00:20:09.312Z,5.63
2022-11-21T00:21:14.456Z,5.62
2022-11-21T00:22:16.288Z,5.63
2022-11-21T00:23:19.326Z,5.63
2022-11-21T00:24:21.148Z,5.61
2022-11-21T00:25:24.027Z,5.62
2022-11-21T00:26:25.869Z,5.62
2022-11-21T00:27:28.836Z,5.62
2022-11-21T00:28:30.693Z,5.62
2022-11-21T00:29:33.454Z,5.63
2022-11-21T00:30:36.002Z,5.63
2022-11-21T00:31:38.942Z,5.63
2022-11-21T00:32:40.686Z,5.63
2022-11-21T00:33:43.553Z,5.64
2022-11-21T00:34:45.345Z,5.64
2022-11-21T00:35:49.729Z,5.65
2022-11-21T00:36:51.645Z,5.64
2022-11-21T00:37:54.455Z,5.65
2022-11-21T00:38:56.244Z,5.65
2022-11-21T00:39:59.129Z,5.62
2022-11-21T00:41:01.098Z,5.62
2022-11-21T00:42:03.940Z,5.61
2022-11-21T00:43:05.775Z,5.61
2022-11-21T00:44:08.705Z,5.63
2022-11-21T00:45:10.901Z,5.62
2022-11-21T00:46:13.668Z,5.64
2022-11-21T00:47:15.503Z,5.65
2022-11-21T00:48:18.314Z,5.66
2022-11-21T00:49:20.141Z,5.65
2022-11-21T00:50:22.890Z,5.66
2022-11-21T00:51:26.053Z,5.66
2022-11-21T00:52:28.992Z,5.68
2022-11-21T00:53:30.869Z,5.67
2022-11-21T00:54:33.767Z,5.68
2022-11-21T00:55:37.242Z,5.71
2022-11-21T00:56:40.064Z,5.69
2022-11-21T00:57:41.936Z,5.66
2022-11-21T00:58:44.793Z,5.67
2022-11-21T00:59:46.716Z,5.67
2022-11-21T01:00:49.562Z,5.63
2022-11-21T01:01:51.425Z,5.66
2022-11-21T01:02:54.178Z,5.64
2022-11-21T01:03:57.302Z,5.64
2022-11-21T01:05:00.335Z,5.64
2022-11-21T01:06:04.010Z,5.65
2022-11-21T01:07:08.214Z,5.66
2022-11-21T01:08:10.102Z,5.66
2022-11-21T01:09:13.119Z,5.66
2022-11-21T01:10:15.213Z,5.66
2022-11-21T01:11:20.448Z,5.66
2022-11-21T01:12:22.541Z,5.66
2022-11-21T01:13:25.342Z,5.66
2022-11-21T01:14:27.524Z,5.67
2022-11-21T01:15:30.490Z,5.68
2022-11-21T01:16:32.439Z,5.67
2022-11-21T01:17:35.272Z,5.67
2022-11-21T01:18:37.631Z,5.66
2022-11-21T01:19:40.485Z,5.66
2022-11-21T01:20:42.227Z,5.65
2022-11-21T01:21:45.056Z,5.65
2022-11-21T01:22:48.230Z,5.63
2022-11-21T01:23:51.619Z,5.60
2022-11-21T01:24:53.438Z,5.61
2022-11-21T01:25:56.386Z,5.59
2022-11-21T01:26:58.485Z,5.61
2022-11-21T01:28:01.263Z,5.62
2022-11-21T01:29:04.087Z,5.62
2022-11-21T01:30:07.161Z,5.60
2022-11-21T01:31:12.822Z,5.60
2022-11-21T01:32:14.581Z,5.61
2022-11-21T01:33:17.378Z,5.61
2022-11-21T01:34:19.294Z,5.60
2022-11-21T01:35:22.154Z,5.59
2022-11-21T01:36:25.914Z,5.59
2022-11-21T01:37:28.822Z,5.61
2022-11-21T01:38:33.099Z,5.60
2022-11-21T01:39:35.934Z,5.59
2022-11-21T01:40:38.608Z,5.58
2022-11-21T01:41:43.192Z,5.58
2022-11-21T01:42:58.432Z,5.59
2022-11-21T01:44:01.400Z,5.57
2022-11-21T01:45:03.487Z,5.57
2022-11-21T01:46:13.226Z,5.58
2022-11-21T01:47:15.035Z,5.58
2022-11-21T01:48:17.955Z,5.59
2022-11-21T01:49:24.319Z,5.60
2022-11-21T01:50:26.164Z,5.59
2022-11-21T01:51:33.965Z,5.59
2022-11-21T01:52:35.878Z,5.60
2022-11-21T01:53:41.589Z,5.60
2022-11-21T01:54:47.956Z,5.59
2022-11-21T01:55:50.141Z,5.57
2022-11-21T01:57:01.273Z,5.58
2022-11-21T01:58:03.398Z,5.58
2022-11-21T01:59:09.203Z,5.60
2022-11-21T02:00:21.479Z,5.61
2022-11-21T02:01:25.074Z,5.63
2022-11-21T02:02:30.921Z,5.64
2022-11-21T02:03:37.518Z,5.65
2022-11-21T02:04:42.011Z,5.65
2022-11-21T02:05:44.822Z,5.65
2022-11-21T02:06:47.133Z,5.64
2022-11-21T02:07:51.732Z,5.65
2022-11-21T02:08:55.343Z,5.65
2022-11-21T02:10:01.975Z,5.65
2022-11-21T02:11:14.249Z,5.65
2022-11-21T02:12:22.394Z,5.62
2022-11-21T02:13:25.145Z,5.62
2022-11-21T02:14:29.318Z,5.61
2022-11-21T02:15:31.391Z,5.61
2022-11-21T02:16:35.072Z,5.62
2022-11-21T02:17:37.011Z,5.61
2022-11-21T02:18:40.894Z,5.61
2022-11-21T02:19:50.119Z,5.62
2022-11-21T02:20:59.016Z,5.61
2022-11-21T02:22:05.970Z,5.61
2022-11-21T02:23:16.912Z,5.61
2022-11-21T02:24:29.860Z,5.61
2022-11-21T02:25:35.994Z,5.62
2022-11-21T02:26:39.271Z,5.60
2022-11-21T02:27:41.496Z,5.60
2022-11-21T02:28:45.373Z,5.60
2022-11-21T02:29:47.389Z,5.61
2022-11-21T02:30:50.540Z,5.61
2022-11-21T02:31:53.713Z,5.62
2022-11-21T02:32:55.646Z,5.62
2022-11-21T02:33:58.421Z,5.63
2022-11-21T02:35:00.464Z,5.64
2022-11-21T02:36:04.129Z,5.65
2022-11-21T02:37:05.932Z,5.64
2022-11-21T02:38:17.914Z,5.61
2022-11-21T02:39:23.675Z,5.62
2022-11-21T02:40:30.184Z,5.61
2022-11-21T02:41:37.641Z,5.59
2022-11-21T02:42:47.850Z,5.56
2022-11-21T02:43:59.483Z,5.57
2022-11-21T02:45:10.326Z,5.57
2022-11-21T02:46:12.094Z,5.56
2022-11-21T02:47:14.896Z,5.57
2022-11-21T02:48:17.865Z,5.57
2022-11-21T02:49:29.677Z,5.59
2022-11-21T02:50:34.216Z,5.59
2022-11-21T02:51:36.173Z,5.60
2022-11-21T02:52:39.012Z,5.58
2022-11-21T02:53:40.926Z,5.58
2022-11-21T02:54:43.805Z,5.57
2022-11-21T02:55:46.664Z,5.57
2022-11-21T02:56:50.873Z,5.57
2022-11-21T02:57:53.251Z,5.57
2022-11-21T02:58:56.087Z,5.57
2022-11-21T02:59:57.866Z,5.57
2022-11-21T03:01:00.767Z,5.58
2022-11-21T03:02:02.820Z,5.59
2022-11-21T03:03:06.030Z,5.59
2022-11-21T03:04:07.815Z,5.58
2022-11-21T03:05:12.647Z,5.57
2022-11-21T03:06:14.448Z,5.58
2022-11-21T03:07:17.247Z,5.59
2022-11-21T03:08:19.078Z,5.59
2022-11-21T03:09:22.001Z,5.60
2022-11-21T03:10:23.816Z,5.59
2022-11-21T03:11:26.727Z,5.60
2022-11-21T03:12:30.038Z,5.58
2022-11-21T03:13:32.762Z,5.58
2022-11-21T03:14:34.576Z,5.56
2022-11-21T03:15:37.562Z,5.57
2022-11-21T03:16:39.434Z,5.57
2022-11-21T03:17:42.683Z,5.57
2022-11-21T03:18:44.493Z,5.57
2022-11-21T03:19:47.246Z,5.57
2022-11-21T03:20:49.050Z,5.57
2022-11-21T03:21:51.890Z,5.59
2022-11-21T03:22:53.754Z,5.60
2022-11-21T03:23:56.628Z,5.60
2022-11-21T03:24:58.475Z,5.61
2022-11-21T03:26:01.249Z,5.61
2022-11-21T03:27:03.136Z,5.61
2022-11-21T03:28:07.333Z,5.60
2022-11-21T03:29:09.517Z,5.60
2022-11-21T03:30:13.366Z,5.60
2022-11-21T03:31:15.140Z,5.59
2022-11-21T03:32:17.978Z,5.58
2022-11-21T03:33:19.819Z,5.57
2022-11-21T03:34:22.719Z,5.56
2022-11-21T03:35:25.320Z,5.57
2022-11-21T03:36:28.159Z,5.57
2022-11-21T03:37:30.065Z,5.55
2022-11-21T03:38:32.862Z,5.54
2022-11-21T03:39:34.996Z,5.54
2022-11-21T03:40:37.819Z,5.54
2022-11-21T03:41:39.831Z,5.54
2022-11-21T03:42:42.823Z,5.54
2022-11-21T03:43:45.984Z,5.52
2022-11-21T03:44:48.797Z,5.53
2022-11-21T03:45:50.695Z,5.52
2022-11-21T03:46:53.477Z,5.54
2022-11-21T03:47:55.326Z,5.54
2022-11-21T03:48:58.173Z,5.53
2022-11-21T03:50:00.032Z,5.54
2022-11-21T03:51:02.855Z,5.54
2022-11-21T03:52:04.792Z,5.54
2022-11-21T03:53:07.673Z,5.54
2022-11-21T03:54:09.876Z,5.54
2022-11-21T03:55:12.895Z,5.54
2022-11-21T03:56:15.018Z,5.54
2022-11-21T03:57:17.833Z,5.53
2022-11-21T03:58:19.613Z,5.55
2022-11-21T03:59:23.711Z,5.55
2022-11-21T04:00:25.549Z,5.56
2022-11-21T04:01:33.759Z,5.55
2022-11-21T04:02:38.135Z,5.55
2022-11-21T04:03:41.819Z,5.55
2022-11-21T04:04:43.667Z,5.55
2022-11-21T04:05:46.434Z,5.55
2022-11-21T04:06:48.187Z,5.55
2022-11-21T04:07:50.982Z,5.56
2022-11-21T04:08:52.949Z,5.57
2022-11-21T04:09:55.870Z,5.55
2022-11-21T04:10:57.638Z,5.55
2022-11-21T04:12:05.003Z,5.54
2022-11-21T04:13:09.287Z,5.55
2022-11-21T04:14:12.130Z,5.55
2022-11-21T04:15:15.398Z,5.56
2022-11-21T04:16:18.371Z,5.57
2022-11-21T04:17:20.284Z,5.57
2022-11-21T04:18:23.318Z,5.58
2022-11-21T04:19:25.117Z,5.59
2022-11-21T04:20:28.006Z,5.59
2022-11-21T04:21:29.806Z,5.57
2022-11-21T04:22:32.550Z,5.56
2022-11-21T04:23:34.388Z,5.54
2022-11-21T04:24:37.204Z,5.54
2022-11-21T04:25:39.048Z,5.53
2022-11-21T04:26:41.826Z,5.53
2022-11-21T04:27:43.752Z,5.53
2022-11-21T04:28:46.613Z,5.52
2022-11-21T04:29:48.552Z,5.52
2022-11-21T04:30:55.064Z,5.50
2022-11-21T04:31:57.302Z,5.50
2022-11-21T04:33:00.235Z,5.51
2022-11-21T04:34:02.430Z,5.50
2022-11-21T04:35:05.850Z,5.49
2022-11-21T04:36:08.624Z,5.49
2022-11-21T04:37:12.008Z,5.51
2022-11-21T04:38:14.513Z,5.52
2022-11-21T04:39:17.365Z,5.51
2022-11-21T04:40:19.461Z,5.51
2022-11-21T04:41:22.259Z,5.49
2022-11-21T04:42:24.721Z,5.49
2022-11-21T04:43:27.519Z,5.49
2022-11-21T04:44:29.725Z,5.48
2022-11-21T04:45:33.245Z,5.49
2022-11-21T04:46:36.380Z,5.50
2022-11-21T04:47:40.402Z,5.50
2022-11-21T04:48:43.337Z,5.50
2022-11-21T04:49:45.203Z,5.50
2022-11-21T04:50:48.040Z,5.50
2022-11-21T04:51:49.874Z,5.50
2022-11-21T04:52:53.676Z,5.51
2022-11-21T04:53:55.636Z,5.52
2022-11-21T04:54:58.595Z,5.53
2022-11-21T04:56:04.107Z,5.53
2022-11-21T04:57:06.914Z,5.54
2022-11-21T04:58:08.775Z,5.54
2022-11-21T04:59:12.862Z,5.55
2022-11-21T05:00:20.974Z,5.57
2022-11-21T05:01:27.085Z,5.54
2022-11-21T05:02:30.389Z,5.55
2022-11-21T05:03:33.238Z,5.55
2022-11-21T05:04:35.035Z,5.56
2022-11-21T05:05:38.440Z,5.55
2022-11-21T05:06:40.294Z,5.55
2022-11-21T05:07:43.220Z,5.56
2022-11-21T05:08:50.414Z,5.54
2022-11-21T05:09:54.976Z,5.54
2022-11-21T05:11:15.203Z,5.56
2022-11-21T05:12:46.929Z,5.56
2022-11-21T05:13:48.875Z,5.56
2022-11-21T05:14:51.925Z,5.57
2022-11-21T05:15:57.109Z,5.56
2022-11-21T05:16:59.913Z,5.58
2022-11-21T05:18:03.101Z,5.58
2022-11-21T05:19:05.942Z,5.60
2022-11-21T05:20:09.248Z,5.60
2022-11-21T05:21:12.051Z,5.60
2022-11-21T05:22:14.025Z,5.61
2022-11-21T05:23:16.911Z,5.60
2022-11-21T05:24:18.825Z,5.60
2022-11-21T05:25:21.732Z,5.60
2022-11-21T05:26:23.554Z,5.60
2022-11-21T05:27:26.373Z,5.60
2022-11-21T05:28:28.372Z,5.60
2022-11-21T05:29:31.413Z,5.59
2022-11-21T05:30:33.442Z,5.59
2022-11-21T05:31:36.295Z,5.60
2022-11-21T05:32:38.156Z,5.59
2022-11-21T05:33:42.371Z,5.59
2022-11-21T05:34:44.166Z,5.60
2022-11-21T05:35:47.304Z,5.59
2022-11-21T05:36:49.694Z,5.60
2022-11-21T05:37:57.010Z,5.60
2022-11-21T05:38:58.818Z,5.62
2022-11-21T05:40:01.599Z,5.62
2022-11-21T05:41:03.486Z,5.61
2022-11-21T05:42:06.377Z,5.59
2022-11-21T05:43:30.332Z,5.59
2022-11-21T05:44:32.172Z,5.56
2022-11-21T05:45:33.971Z,5.56
2022-11-21T05:46:36.840Z,5.56
2022-11-21T05:47:41.070Z,5.57
2022-11-21T05:48:46.091Z,5.57
2022-11-21T05:49:48.209Z,5.59
2022-11-21T05:50:51.335Z,5.58
2022-11-21T05:51:53.116Z,5.57
2022-11-21T05:52:55.884Z,5.57
2022-11-21T05:53:58.683Z,5.57
2022-11-21T05:55:00.564Z,5.57
2022-11-21T05:56:05.417Z,5.57
2022-11-21T05:57:07.266Z,5.63
2022-11-21T05:58:10.872Z,5.63
2022-11-21T05:59:12.820Z,5.63
2022-11-21T06:00:16.885Z,5.64
2022-11-21T06:01:39.169Z,5.63
2022-11-21T06:03:00.759Z,5.62
2022-11-21T06:04:05.252Z,5.59
2022-11-21T06:05:07.764Z,5.57
2022-11-21T06:06:12.860Z,5.56
2022-11-21T06:07:14.678Z,5.55
2022-11-21T06:08:17.605Z,5.56
2022-11-21T06:09:20.617Z,5.57
2022-11-21T06:10:22.475Z,5.56
2022-11-21T06:11:25.454Z,5.53
2022-11-21T06:12:27.329Z,5.53
2022-11-21T06:13:30.572Z,5.53
2022-11-21T06:14:32.337Z,5.51
2022-11-21T06:15:35.117Z,5.50
2022-11-21T06:16:38.012Z,5.51
2022-11-21T06:17:39.969Z,5.51
2022-11-21T06:18:44.703Z,5.52
2022-11-21T06:19:47.799Z,5.51
2022-11-21T06:20:51.119Z,5.51
2022-11-21T06:21:54.056Z,5.51
2022-11-21T06:22:55.850Z,5.52
2022-11-21T06:23:59.650Z,5.51
2022-11-21T06:25:01.522Z,5.49
2022-11-21T06:26:06.693Z,5.48
2022-11-21T06:27:08.580Z,5.47
2022-11-21T06:28:11.980Z,5.47
2022-11-21T06:29:13.972Z,5.46
2022-11-21T06:30:21.975Z,5.47
2022-11-21T06:31:27.984Z,5.47
2022-11-21T06:32:30.024Z,5.44
2022-11-21T06:33:33.000Z,5.43
2022-11-21T06:34:35.867Z,5.44
2022-11-21T06:35:39.835Z,5.45
2022-11-21T06:36:44.651Z,5.46
2022-11-21T06:37:50.764Z,5.46
2022-11-21T06:38:57.706Z,5.46
2022-11-21T06:39:59.822Z,5.47
2022-11-21T06:41:05.576Z,5.46
2022-11-21T06:42:17.412Z,5.47
2022-11-21T06:43:20.280Z,5.46
2022-11-21T06:44:23.203Z,5.47
2022-11-21T06:45:25.104Z,5.49
2022-11-21T06:46:27.916Z,5.47
2022-11-21T06:47:33.619Z,5.49
2022-11-21T06:48:37.620Z,5.48
2022-11-21T06:49:39.495Z,5.49
2022-11-21T06:50:43.619Z,5.49
2022-11-21T06:51:45.469Z,5.48
2022-11-21T06:52:48.449Z,5.49
2022-11-21T06:53:55.760Z,5.50
2022-11-21T06:54:58.595Z,5.50
2022-11-21T06:56:01.033Z,5.50
2022-11-21T06:57:03.880Z,5.50
2022-11-21T06:58:05.731Z,5.50
2022-11-21T06:59:08.660Z,5.51
2022-11-21T07:00:11.644Z,5.50
2022-11-21T07:01:14.518Z,5.50
2022-11-21T07:02:16.450Z,5.49
2022-11-21T07:03:19.400Z,5.48
2022-11-21T07:04:21.415Z,5.49
2022-11-21T07:05:24.292Z,5.48
2022-11-21T07:06:28.561Z,5.49
2022-11-21T07:07:30.436Z,5.49
2022-11-21T07:08:35.362Z,5.49
2022-11-21T07:09:38.411Z,5.50
2022-11-21T07:10:57.335Z,5.51
2022-11-21T07:12:18.627Z,5.50
2022-11-21T07:13:24.849Z,5.51
2022-11-21T07:14:26.756Z,5.51
2022-11-21T07:15:29.604Z,5.50
2022-11-21T07:16:32.468Z,5.50
2022-11-21T07:17:34.318Z,5.50
2022-11-21T07:18:38.033Z,5.51
2022-11-21T07:19:41.128Z,5.54
2022-11-21T07:20:44.415Z,5.53
2022-11-21T07:21:47.534Z,5.53
2022-11-21T07:22:50.318Z,5.54
2022-11-21T07:23:52.114Z,5.53
2022-11-21T07:24:54.961Z,5.54
2022-11-21T07:26:01.140Z,5.53
2022-11-21T07:27:03.046Z,5.53
2022-11-21T07:28:05.904Z,5.53
2022-11-21T07:29:08.723Z,5.53
2022-11-21T07:30:11.383Z,5.54
2022-11-21T07:31:14.543Z,5.53
2022-11-21T07:32:16.468Z,5.53
2022-11-21T07:33:19.428Z,5.54
2022-11-21T07:34:21.259Z,5.52
2022-11-21T07:35:24.180Z,5.51
2022-11-21T07:36:26.141Z,5.50
2022-11-21T07:37:30.396Z,5.48
2022-11-21T07:38:32.227Z,5.47
2022-11-21T07:39:35.068Z,5.46
2022-11-21T07:40:38.257Z,5.47
2022-11-21T07:41:41.138Z,5.47
2022-11-21T07:42:43.260Z,5.47
2022-11-21T07:43:46.182Z,5.49
2022-11-21T07:44:48.016Z,5.51
2022-11-21T07:45:50.812Z,5.53
2022-11-21T07:46:54.900Z,5.55
2022-11-21T07:48:01.614Z,5.57
2022-11-21T07:49:04.513Z,5.58
2022-11-21T07:50:07.897Z,5.60
2022-11-21T07:51:11.130Z,5.62
2022-11-21T07:52:12.903Z,5.63
2022-11-21T07:53:17.100Z,5.65
2022-11-21T07:54:19.225Z,5.65
2022-11-21T07:55:22.065Z,5.66
2022-11-21T07:56:26.603Z,5.66
2022-11-21T07:57:29.204Z,5.65
2022-11-21T07:58:32.283Z,5.64
2022-11-21T07:59:34.302Z,5.63
2022-11-21T08:00:38.850Z,5.63
2022-11-21T08:01:45.261Z,5.60
2022-11-21T08:02:48.548Z,5.60
2022-11-21T08:03:50.328Z,5.59
2022-11-21T08:04:53.444Z,5.57
2022-11-21T08:05:56.307Z,5.56
2022-11-21T08:06:58.266Z,5.56
2022-11-21T08:08:01.230Z,5.56
2022-11-21T08:09:05.482Z,5.54
2022-11-21T08:10:07.879Z,5.55
2022-11-21T08:11:10.900Z,5.56
2022-11-21T08:12:18.002Z,5.54
2022-11-21T08:13:19.961Z,5.53
2022-11-21T08:14:22.913Z,5.52
2022-11-21T08:15:24.825Z,5.52
2022-11-21T08:16:30.617Z,5.53
2022-11-21T08:17:33.039Z,5.54
2022-11-21T08:18:36.156Z,5.53
2022-11-21T08:19:38.065Z,5.54
2022-11-21T08:20:41.642Z,5.55
2022-11-21T08:21:44.555Z,5.56
2022-11-21T08:22:46.604Z,5.56
2022-11-21T08:23:50.074Z,5.57
2022-11-21T08:24:54.272Z,5.56
2022-11-21T08:25:57.111Z,5.56
2022-11-21T08:27:01.453Z,5.58
2022-11-21T08:28:04.165Z,5.57
2022-11-21T08:29:07.157Z,5.58
2022-11-21T08:30:12.199Z,5.58
2022-11-21T08:31:14.237Z,5.57
2022-11-21T08:32:17.190Z,5.57
2022-11-21T08:33:19.129Z,5.57
2022-11-21T08:34:22.063Z,5.57
2022-11-21T08:35:23.914Z,5.57
2022-11-21T08:36:26.730Z,5.57
2022-11-21T08:37:30.194Z,5.56
2022-11-21T08:38:33.213Z,5.57
2022-11-21T08:39:35.171Z,5.55
2022-11-21T08:40:39.538Z,5.55
2022-11-21T08:42:00.251Z,5.54
2022-11-21T08:43:05.025Z,5.53
2022-11-21T08:44:12.696Z,5.52
2022-11-21T08:45:17.006Z,5.51
2022-11-21T08:46:19.043Z,5.51
2022-11-21T08:47:22.167Z,5.51
2022-11-21T08:48:25.022Z,5.52
2022-11-21T08:49:27.435Z,5.50
2022-11-21T08:50:30.359Z,5.51
2022-11-21T08:51:32.625Z,5.50
2022-11-21T08:52:35.418Z,5.50
2022-11-21T08:53:37.234Z,5.51
2022-11-21T08:54:40.031Z,5.51
2022-11-21T08:55:43.217Z,5.53
2022-11-21T08:56:46.437Z,5.53
2022-11-21T08:57:48.266Z,5.53
2022-11-21T08:58:51.226Z,5.53
2022-11-21T08:59:53.101Z,5.54
2022-11-21T09:00:55.928Z,5.54
2022-11-21T09:01:58.997Z,5.55
2022-11-21T09:03:05.417Z,5.56
2022-11-21T09:04:08.779Z,5.58
2022-11-21T09:05:11.614Z,5.59
2022-11-21T09:06:14.507Z,5.59
2022-11-21T09:07:17.575Z,5.61
2022-11-21T09:08:21.012Z,5.61
2022-11-21T09:09:25.524Z,5.62
2022-11-21T09:10:29.069Z,5.62
2022-11-21T09:11:32.455Z,5.63
2022-11-21T09:12:35.365Z,5.64
2022-11-21T09:13:37.461Z,5.66
2022-11-21T09:14:54.179Z,5.66
2022-11-21T09:16:20.456Z,5.70
2022-11-21T09:17:41.491Z,5.71
2022-11-21T09:18:44.488Z,5.73
2022-11-21T09:19:47.349Z,5.73
2022-11-21T09:20:50.235Z,5.74
2022-11-21T09:21:52.698Z,5.75
2022-11-21T09:22:55.574Z,5.76
2022-11-21T09:23:57.424Z,5.76
2022-11-21T09:25:00.336Z,5.76
2022-11-21T09:26:03.201Z,5.77
2022-11-21T09:27:06.431Z,5.78
2022-11-21T09:28:11.204Z,5.78
2022-11-21T09:29:16.297Z,5.79
2022-11-21T09:30:19.498Z,5.82
2022-11-21T09:31:22.426Z,5.82
2022-11-21T09:32:25.424Z,5.81
2022-11-21T09:33:28.357Z,5.83
2022-11-21T09:34:31.800Z,5.82
2022-11-21T09:35:35.126Z,5.83
2022-11-21T09:36:38.245Z,5.84
2022-11-21T09:37:41.301Z,5.83
2022-11-21T09:38:44.157Z,5.85
2022-11-21T09:39:47.185Z,5.86
2022-11-21T09:40:50.398Z,5.87
2022-11-21T09:42:01.502Z,5.87
2022-11-21T09:43:19.683Z,5.85
2022-11-21T09:44:56.543Z,5.84
2022-11-21T09:46:04.281Z,5.83
2022-11-21T09:47:22.734Z,5.83
2022-11-21T09:48:31.449Z,5.84
2022-11-21T09:49:43.136Z,5.84
2022-11-21T09:50:53.815Z,5.84
2022-11-21T09:51:58.749Z,5.83
2022-11-21T09:53:07.745Z,5.83
2022-11-21T09:54:18.767Z,5.81
2022-11-21T09:55:28.912Z,5.81
2022-11-21T09:56:34.499Z,5.81
2022-11-21T09:57:36.760Z,5.80
2022-11-21T09:58:44.590Z,5.78
2022-11-21T09:59:48.038Z,5.79
2022-11-21T10:00:52.539Z,5.80
2022-11-21T10:01:55.450Z,5.82
2022-11-21T10:02:59.032Z,5.82
2022-11-21T10:04:04.371Z,5.84
2022-11-21T10:05:14.501Z,5.83
2022-11-21T10:06:21.015Z,5.84
2022-11-21T10:07:28.150Z,5.86
2022-11-21T10:08:39.252Z,5.86
2022-11-21T10:10:05.019Z,5.88
2022-11-21T10:11:20.208Z,5.88
2022-11-21T10:12:38.595Z,5.88
2022-11-21T10:13:55.585Z,5.88
2022-11-21T10:15:07.667Z,5.89
2022-11-21T10:16:20.366Z,5.89
2022-11-21T10:17:32.725Z,5.89
2022-11-21T10:19:11.294Z,5.91
2022-11-21T10:20:29.206Z,5.92
2022-11-21T10:21:57.490Z,5.94
2022-11-21T10:23:12.963Z,5.95
2022-11-21T10:24:32.441Z,5.96
2022-11-21T10:25:38.110Z,5.97
2022-11-21T10:26:46.081Z,5.99
2022-11-21T10:27:54.848Z,6.01
2022-11-21T10:29:03.156Z,6.01
2022-11-21T10:30:14.700Z,6.04
2022-11-21T10:31:19.320Z,6.05
2022-11-21T10:32:24.802Z,6.07
2022-11-21T10:33:32.619Z,6.08
2022-11-21T10:34:38.931Z,6.11
2022-11-21T10:35:46.887Z,6.12
2022-11-21T10:36:53.483Z,6.13
2022-11-21T10:38:00.833Z,6.13
2022-11-21T10:39:11.412Z,6.14
2022-11-21T10:40:24.937Z,6.15
2022-11-21T10:41:40.097Z,6.14
2022-11-21T10:42:53.496Z,6.15
2022-11-21T10:44:22.859Z,6.14
2022-11-21T10:45:25.227Z,6.15
2022-11-21T10:46:28.296Z,6.15
2022-11-21T10:47:34.678Z,6.16
2022-11-21T10:48:37.594Z,6.16
2022-11-21T10:49:41.484Z,6.17
2022-11-21T10:51:03.357Z,6.16
2022-11-21T10:52:10.671Z,6.17
2022-11-21T10:53:36.135Z,6.17
2022-11-21T10:55:05.033Z,6.17
2022-11-21T10:56:10.590Z,6.17
2022-11-21T10:57:16.118Z,6.18
2022-11-21T10:58:20.233Z,6.19
2022-11-21T10:59:30.840Z,6.19
2022-11-21T11:00:34.303Z,6.19
2022-11-21T11:01:36.320Z,6.21
2022-11-21T11:02:40.287Z,6.22
2022-11-21T11:03:48.325Z,6.23
2022-11-21T11:05:20.431Z,6.24
2022-11-21T11:06:29.738Z,6.23
2022-11-21T11:07:32.675Z,6.24
2022-11-21T11:08:51.559Z,6.24
2022-11-21T11:10:14.596Z,6.22
2022-11-21T11:11:22.116Z,6.20
2022-11-21T11:12:51.864Z,6.20
2022-11-21T11:13:57.997Z,6.20
2022-11-21T11:15:02.323Z,6.20
2022-11-21T11:16:07.299Z,6.21
2022-11-21T11:17:15.306Z,6.22
2022-11-21T11:18:22.200Z,6.22
2022-11-21T11:19:35.361Z,6.21
2022-11-21T11:20:39.941Z,6.21
2022-11-21T11:21:45.348Z,6.22
2022-11-21T11:22:48.076Z,6.22
2022-11-21T11:23:52.569Z,6.21
2022-11-21T11:25:00.185Z,6.20
2022-11-21T11:26:03.685Z,6.20
2022-11-21T11:27:06.508Z,6.18
2022-11-21T11:28:09.164Z,6.17
2022-11-21T11:29:16.204Z,6.16
2022-11-21T11:30:21.352Z,6.15
2022-11-21T11:31:23.286Z,6.15
2022-11-21T11:32:26.677Z,6.14
2022-11-21T11:33:36.169Z,6.14
2022-11-21T11:34:41.513Z,6.15
2022-11-21T11:35:43.909Z,6.16
2022-11-21T11:37:03.997Z,6.15
2022-11-21T11:38:11.966Z,6.15
2022-11-21T11:39:20.582Z,6.14
2022-11-21T11:40:31.146Z,6.13
2022-11-21T11:42:25.992Z,6.14
2022-11-21T11:43:54.629Z,6.13
2022-11-21T11:45:33.529Z,6.14
2022-11-21T11:47:13.114Z,6.15
2022-11-21T11:48:19.714Z,6.16
2022-11-21T11:49:32.009Z,6.17
2022-11-21T11:50:39.035Z,6.17
2022-11-21T11:51:46.997Z,6.18
2022-11-21T11:52:58.616Z,6.20
2022-11-21T11:54:09.447Z,6.21
2022-11-21T11:55:20.041Z,6.21
2022-11-21T11:56:26.024Z,6.21
2022-11-21T11:57:31.591Z,6.22
2022-11-21T11:58:41.380Z,6.23
2022-11-21T11:59:49.878Z,6.25
2022-11-21T12:01:01.568Z,6.25
2022-11-21T12:02:14.184Z,6.25
2022-11-21T12:03:21.249Z,6.26
2022-11-21T12:04:25.118Z,6.26
2022-11-21T12:05:31.078Z,6.26
2022-11-21T12:07:26.188Z,6.26
2022-11-21T12:09:44.233Z,6.26
2022-11-21T12:11:09.929Z,6.27
2022-11-21T12:12:20.053Z,6.29
2022-11-21T12:13:22.119Z,6.28
2022-11-21T12:15:11.659Z,6.30
2022-11-21T12:16:15.423Z,6.30
2022-11-21T12:17:24.832Z,6.31
2022-11-21T12:18:34.904Z,6.32
2022-11-21T12:19:38.202Z,6.33
2022-11-21T12:20:53.195Z,6.33
2022-11-21T12:21:55.073Z,6.33
2022-11-21T12:22:58.516Z,6.33
2022-11-21T12:24:03.869Z,6.32
2022-11-21T12:25:12.255Z,6.34
2022-11-21T12:26:30.692Z,6.35
2022-11-21T12:27:34.774Z,6.35
2022-11-21T12:28:47.001Z,6.35
2022-11-21T12:30:10.028Z,6.37
2022-11-21T12:31:20.857Z,6.38
2022-11-21T12:32:47.099Z,6.37
2022-11-21T12:34:04.992Z,6.38
2022-11-21T12:35:22.716Z,6.40
2022-11-21T12:36:34.027Z,6.41
2022-11-21T12:37:47.177Z,6.42
2022-11-21T12:39:10.409Z,6.43
2022-11-21T12:40:29.291Z,6.45
2022-11-21T12:41:55.183Z,6.46
2022-11-21T12:43:07.330Z,6.48
2022-11-21T12:44:21.563Z,6.49
2022-11-21T12:45:28.879Z,6.50
2022-11-21T12:46:42.341Z,6.53
2022-11-21T12:48:34.136Z,6.54
2022-11-21T12:50:06.541Z,6.53
2022-11-21T12:51:41.318Z,6.53
2022-11-21T12:53:08.561Z,6.54
2022-11-21T12:54:33.297Z,6.54
2022-11-21T12:55:39.107Z,6.54
2022-11-21T12:56:49.661Z,6.53
2022-11-21T12:58:06.113Z,6.53
2022-11-21T12:59:16.073Z,6.51
2022-11-21T13:00:26.344Z,6.49
2022-11-21T13:01:36.236Z,6.50
2022-11-21T13:03:05.668Z,6.51
2022-11-21T13:04:15.384Z,6.52
2022-11-21T13:05:25.865Z,6.53
2022-11-21T13:06:31.883Z,6.54
2022-11-21T13:07:35.157Z,6.55
2022-11-21T13:08:38.242Z,6.55
2022-11-21T13:09:44.546Z,6.56
2022-11-21T13:11:13.811Z,6.56
2022-11-21T13:12:24.788Z,6.56
2022-11-21T13:13:34.999Z,6.57
2022-11-21T13:14:45.804Z,6.56
2022-11-21T13:15:57.355Z,6.53
2022-11-21T13:17:30.302Z,6.54
2022-11-21T13:18:40.452Z,6.54
2022-11-21T13:19:52.582Z,6.54
2022-11-21T13:20:55.446Z,6.54
2022-11-21T13:21:57.426Z,6.54
2022-11-21T13:23:01.660Z,6.55
2022-11-21T13:24:03.657Z,6.55
2022-11-21T13:25:11.962Z,6.55
2022-11-21T13:26:49.815Z,6.54
2022-11-21T13:27:52.742Z,6.56
2022-11-21T13:29:09.160Z,6.57
2022-11-21T13:30:22.563Z,6.58
2022-11-21T13:31:33.504Z,6.59
2022-11-21T13:32:38.502Z,6.59
2022-11-21T13:33:51.443Z,6.60
2022-11-21T13:34:55.722Z,6.61
2022-11-21T13:35:58.275Z,6.61
2022-11-21T13:37:01.221Z,6.62
2022-11-21T13:38:04.411Z,6.62
2022-11-21T13:39:35.653Z,6.63
2022-11-21T13:40:39.669Z,6.63
2022-11-21T13:42:20.410Z,6.61
2022-11-21T13:43:34.702Z,6.63
2022-11-21T13:44:40.633Z,6.63
2022-11-21T13:45:45.494Z,6.63
2022-11-21T13:47:02.167Z,6.66
2022-11-21T13:48:17.705Z,6.67
2022-11-21T13:49:24.302Z,6.67
2022-11-21T13:50:53.615Z,6.68
2022-11-21T13:51:56.885Z,6.67
2022-11-21T13:53:10.559Z,6.68
2022-11-21T13:54:58.316Z,6.69
2022-11-21T13:56:11.609Z,6.69
2022-11-21T13:57:29.061Z,6.69
2022-11-21T13:58:51.203Z,6.70
2022-11-21T14:00:20.438Z,6.68
2022-11-21T14:01:46.252Z,6.69
2022-11-21T14:03:24.275Z,6.68
2022-11-21T14:04:53.141Z,6.67
2022-11-21T14:06:20.094Z,6.68
2022-11-21T14:07:29.117Z,6.67
2022-11-21T14:08:31.685Z,6.67
2022-11-21T14:09:38.557Z,6.68
2022-11-21T14:10:42.929Z,6.67
2022-11-21T14:11:49.849Z,6.67
2022-11-21T14:12:55.409Z,6.67
2022-11-21T14:13:57.418Z,6.69
2022-11-21T14:15:21.449Z,6.67
2022-11-21T14:16:30.989Z,6.68
2022-11-21T14:17:47.478Z,6.67
2022-11-21T14:18:51.091Z,6.67
2022-11-21T14:19:55.683Z,6.66
2022-11-21T14:21:00.693Z,6.66
2022-11-21T14:22:04.919Z,6.66
2022-11-21T14:23:17.148Z,6.66
2022-11-21T14:24:19.836Z,6.65
2022-11-21T14:25:25.533Z,6.67
2022-11-21T14:26:31.925Z,6.66
2022-11-21T14:27:45.136Z,6.66
2022-11-21T14:28:49.558Z,6.65
2022-11-21T14:29:52.466Z,6.65
2022-11-21T14:30:59.605Z,6.65
2022-11-21T14:32:01.506Z,6.66
2022-11-21T14:33:24.863Z,6.65
2022-11-21T14:34:29.780Z,6.65
2022-11-21T14:35:31.986Z,6.65
2022-11-21T14:36:36.820Z,6.66
2022-11-21T14:37:43.133Z,6.67
2022-11-21T14:39:02.177Z,6.67
2022-11-21T14:40:20.889Z,6.68
2022-11-21T14:41:26.987Z,6.68
2022-11-21T14:42:36.164Z,6.67
2022-11-21T14:43:37.987Z,6.67
2022-11-21T14:44:40.932Z,6.65